Flight Track Log - Related Links

Times and Time Zones

All times are in EDT time to prevent confusion due to time zone crossing. See the RPA4907 flight status page for this flight to view local times or setup timezone preferences in your user account.


Time Position Orientation Groundspeed Altitude Reporting Facility
EDT Latitude Longitude Course Direction KTS MPH feet Rate Location/Type
Mon 10:16:32 AM 42.7236 -73.8081 220° Southwest 176 203 900  Level Boston Center
Mon 10:17:27 AM 42.6797 -73.8097 182° South 196 226 2,300 1,636 Climbing Boston Center
Mon 10:18:44 AM 42.6328 -73.9075 237° Southwest 244 281 4,500 1,883 Climbing Boston Center
Mon 10:19:00 AM 42.7334 -74.1657 270° West  Level FlightAware Approximate
Mon 10:19:44 AM 42.6003 -73.9886 241° Southwest 249 287 6,600  Level Boston Center
Mon 10:20:00 AM 42.7333 -74.2877 270° West  Level FlightAware Approximate
Mon 10:20:44 AM 42.5703 -74.0611 241° Southwest 244 281 8,600  Level Boston Center
Mon 10:21:00 AM 42.6775 -74.3775 220° Southwest  Level FlightAware Approximate
Mon 10:21:44 AM 42.5314 -74.1447 238° Southwest 243 280 10,800  Level Boston Center
Mon 10:22:44 AM 42.5033 -74.2144 241° Southwest 243 280 12,400 1,650 Climbing Boston Center
Mon 10:23:44 AM 42.4664 -74.3006 240° Southwest 248 285 14,100 1,550 Climbing Boston Center
Mon 10:24:44 AM 42.4361 -74.3672 238° Southwest 243 280 15,500 1,400 Climbing Boston Center
Mon 10:25:44 AM 42.4014 -74.4506 241° Southwest 243 280 16,900 1,067 Climbing Boston Center
Mon 10:27:44 AM 42.3361 -74.5972 239° Southwest 238 274 18,700 867 Climbing Boston Center
Mon 10:28:44 AM 42.3078 -74.6664 241° Southwest 238 274 19,500 800 Climbing Boston Center
Mon 10:29:44 AM 42.2750 -74.7439 240° Southwest 238 274 20,300 800 Climbing Boston Center
Mon 10:30:44 AM 42.2444 -74.8100 238° Southwest 238 274 21,100 733 Climbing Boston Center
Mon 10:31:55 AM 42.2136 -74.8872 242° Southwest 233 268 21,900 409 Climbing Boston Center
Mon 10:32:56 AM 42.1719 -74.9808 239° Southwest 233 268 22,000 50 Climbing Boston Center
Mon 10:33:56 AM 42.1450 -75.0667 247° West 247 284 22,000  Level Boston Center
Mon 10:35:28 AM 42.0983 -75.2119 247° West 268 308 22,000  Level New York Center
Mon 10:36:28 AM 42.0656 -75.3106 246° West 281 323 22,000  Level New York Center
Mon 10:37:29 AM 42.0286 -75.4028 242° Southwest 291 335 22,000  Level New York Center
Mon 10:38:29 AM 41.9894 -75.4978 241° Southwest 296 341 22,000 -203 Level New York Center
Mon 10:39:27 AM 41.9483 -75.5922 240° Southwest 296 341 21,600 -555 Descending New York Center
Mon 10:40:28 AM 41.9067 -75.6925 241° Southwest 296 341 20,900 -694 Descending New York Center
Mon 10:41:28 AM 41.8547 -75.7889 234° Southwest 308 354 20,200 -694 Descending New York Center
Mon 10:42:29 AM 41.8047 -75.8881 236° Southwest 319 367 19,500 -744 Descending New York Center
Mon 10:43:29 AM 41.7458 -76.0003 235° Southwest 330 380 18,700 -750 Descending New York Center
Mon 10:44:29 AM 41.6956 -76.0992 236° Southwest 330 380 18,000 -661 Descending New York Center
Mon 10:45:27 AM 41.6411 -76.2003 234° Southwest 338 389 17,400 -559 Descending New York Center
Mon 10:46:27 AM 41.5931 -76.2906 235° Southwest 338 389 16,900 -492 Descending New York Center
Mon 10:47:29 AM 41.5425 -76.3892 236° Southwest 338 389 16,400 -443 Descending New York Center
Mon 10:48:29 AM 41.4853 -76.4978 235° Southwest 338 389 16,000 -200 Descending New York Center
Mon 10:49:29 AM 41.4328 -76.5931 234° Southwest 333 383 16,000  Level New York Center
Mon 10:50:27 AM 41.3636 -76.6422 208° Southwest 307 353 16,000  Level New York Center
Mon 10:51:27 AM 41.2742 -76.6814 198° South 313 360 16,000  Level New York Center
Mon 10:52:28 AM 41.1914 -76.7156 197° South 318 366 16,000  Level New York Center
Mon 10:53:28 AM 41.1106 -76.7497 198° South 312 359 16,000  Level New York Center
Mon 10:54:29 AM 41.0294 -76.7839 198° South 312 359 16,000  Level New York Center
Mon 10:55:29 AM 40.9506 -76.8181 198° South 312 359 16,000  Level New York Center
Mon 10:56:29 AM 40.8803 -76.8503 199° South 312 359 16,000  Level New York Center
Mon 10:57:28 AM 40.7908 -76.8861 197° South 312 359 16,000  Level New York Center
Mon 10:58:28 AM 40.7147 -76.9094 193° South 312 359 16,000  Level New York Center
Mon 10:59:29 AM 40.6256 -76.9372 193° South 307 353 16,000  Level New York Center
Mon 11:00:29 AM 40.5514 -76.9606 193° South 307 353 16,000  Level New York Center
Mon 11:01:30 AM 40.4603 -76.9906 194° South 307 353 16,000 -488 Level New York Center
Mon 11:03:00 AM 40.3477 -77.0089 191° South  Level FlightAware Approximate
Mon 11:04:35 AM 40.2000 -77.0667 191° South 310 357 14,000  Level Potomac TRACON
Mon 11:05:35 AM 40.1167 -77.1000 197° South 303 349 13,000 -1,053 Descending Potomac TRACON
Mon 11:06:29 AM 40.0333 -77.1167 189° South 293 337 12,000 -1,050 Descending Potomac TRACON
Mon 11:07:35 AM 39.9667 -77.1333 191° South 262 302 10,900 -952 Descending Potomac TRACON
Mon 11:08:35 AM 39.9000 -77.1167 169° South 250 288 10,000 -950 Descending Potomac TRACON
Mon 11:09:35 AM 39.8333 -77.1000 169° South 269 310 9,000 -950 Descending Potomac TRACON
Mon 11:10:35 AM 39.7667 -77.1667 218° Southwest 254 292 8,100 -950 Descending Potomac TRACON
Mon 11:11:35 AM 39.7167 -77.2167 218° Southwest 248 285 7,100 -579 Descending Potomac TRACON
Mon 11:12:29 AM 39.6833 -77.2833 237° Southwest 247 284 7,000 -158 Descending Potomac TRACON
Mon 11:13:29 AM 39.6167 -77.3333 210° Southwest 241 277 6,800 -533 Descending Potomac TRACON
Mon 11:15:00 AM 39.5052 -77.3493 186° South  Level FlightAware Approximate
Mon 11:15:29 AM 39.5000 -77.4167 186° South 241 277 5,400  Level Potomac TRACON
Mon 11:16:29 AM 39.4500 -77.4333 194° South 238 274 4,100 -700 Descending Potomac TRACON
Mon 11:17:29 AM 39.3833 -77.4333 180° South 224 258 4,000 -104 Descending Potomac TRACON
Mon 11:18:24 AM 39.3333 -77.4333 180° South 189 217 3,900 -470 Descending Potomac TRACON
Mon 11:19:24 AM 39.2833 -77.4333 180° South 183 211 3,100 -450 Descending Potomac TRACON
Mon 11:20:24 AM 39.2167 -77.4333 180° South 201 231 3,000 -50 Descending Potomac TRACON
Mon 11:21:24 AM 39.1667 -77.4333 180° South 230 265 3,000  Level Potomac TRACON
Mon 11:22:18 AM 39.1000 -77.4333 180° South 216 249 3,000  Level Potomac TRACON

Login

Don't have an account? Register now (free) for customized features, flight alerts, and more!